sensor_id;sensor_type;location;lat;lon;timestamp;noise_LAeq;noise_LA_min;noise_LA_max;noise_LA01;noise_LA95
73206;Laerm;61415;55.702;37.460;2023-04-25T00:00:00;64.79;56.36;74.44;;
73206;Laerm;61415;55.702;37.460;2023-04-25T00:00:31;62.94;56.52;68.04;;
73206;Laerm;61415;55.702;37.460;2023-04-25T00:01:02;63.56;57.97;69.17;;
73206;Laerm;61415;55.702;37.460;2023-04-25T00:01:34;64.26;58.63;69.91;;
73206;Laerm;61415;55.702;37.460;2023-04-25T00:02:06;63.92;58.93;68.88;;
73206;Laerm;61415;55.702;37.460;2023-04-25T00:02:37;66.78;62.19;71.20;;
73206;Laerm;61415;55.702;37.460;2023-04-25T00:03:08;63.67;58.45;68.95;;
73206;Laerm;61415;55.702;37.460;2023-04-25T00:03:39;64.47;59.01;68.64;;
73206;Laerm;61415;55.702;37.460;2023-04-25T00:04:10;63.53;58.97;68.58;;
73206;Laerm;61415;55.702;37.460;2023-04-25T00:04:42;59.77;55.93;63.51;;
73206;Laerm;61415;55.702;37.460;2023-04-25T00:05:12;62.31;58.46;66.01;;
73206;Laerm;61415;55.702;37.460;2023-04-25T00:05:45;63.90;59.24;72.31;;
73206;Laerm;61415;55.702;37.460;2023-04-25T00:06:16;62.72;58.03;69.40;;
73206;Laerm;61415;55.702;37.460;2023-04-25T00:06:48;64.20;59.20;68.75;;
73206;Laerm;61415;55.702;37.460;2023-04-25T00:07:19;61.72;56.95;66.66;;
73206;Laerm;61415;55.702;37.460;2023-04-25T00:07:49;64.71;59.11;71.92;;
73206;Laerm;61415;55.702;37.460;2023-04-25T00:08:20;63.33;55.80;71.88;;
73206;Laerm;61415;55.702;37.460;2023-04-25T00:08:52;62.45;58.27;66.12;;
73206;Laerm;61415;55.702;37.460;2023-04-25T00:09:22;61.51;56.31;65.27;;
73206;Laerm;61415;55.702;37.460;2023-04-25T00:09:53;59.29;56.16;62.53;;
73206;Laerm;61415;55.702;37.460;2023-04-25T00:10:24;60.10;55.76;63.95;;
73206;Laerm;61415;55.702;37.460;2023-04-25T00:10:55;61.13;55.95;66.03;;
73206;Laerm;61415;55.702;37.460;2023-04-25T00:11:25;59.21;54.62;64.16;;
73206;Laerm;61415;55.702;37.460;2023-04-25T00:11:56;62.41;58.53;66.93;;
73206;Laerm;61415;55.702;37.460;2023-04-25T00:12:27;61.85;56.70;66.51;;
73206;Laerm;61415;55.702;37.460;2023-04-25T00:12:59;62.03;56.56;66.71;;
73206;Laerm;61415;55.702;37.460;2023-04-25T00:13:32;60.34;56.36;64.17;;
73206;Laerm;61415;55.702;37.460;2023-04-25T00:14:04;63.00;58.15;67.22;;
73206;Laerm;61415;55.702;37.460;2023-04-25T00:14:34;62.44;58.08;66.01;;
73206;Laerm;61415;55.702;37.460;2023-04-25T00:15:06;62.60;54.16;67.29;;
73206;Laerm;61415;55.702;37.460;2023-04-25T00:15:36;57.18;52.94;64.22;;
73206;Laerm;61415;55.702;37.460;2023-04-25T00:16:08;59.01;53.92;64.02;;
73206;Laerm;61415;55.702;37.460;2023-04-25T00:16:39;61.55;57.53;64.87;;
73206;Laerm;61415;55.702;37.460;2023-04-25T00:17:11;62.67;56.21;67.45;;
73206;Laerm;61415;55.702;37.460;2023-04-25T00:17:42;59.47;54.59;64.98;;
73206;Laerm;61415;55.702;37.460;2023-04-25T00:18:13;65.63;58.11;71.16;;
73206;Laerm;61415;55.702;37.460;2023-04-25T00:18:44;62.20;58.03;66.24;;
73206;Laerm;61415;55.702;37.460;2023-04-25T00:19:16;62.24;58.25;68.44;;
73206;Laerm;61415;55.702;37.460;2023-04-25T00:19:47;61.07;56.95;65.59;;
73206;Laerm;61415;55.702;37.460;2023-04-25T00:20:18;67.53;57.28;73.55;;
73206;Laerm;61415;55.702;37.460;2023-04-25T00:20:49;62.63;59.09;68.43;;
73206;Laerm;61415;55.702;37.460;2023-04-25T00:21:20;62.54;58.35;67.99;;
73206;Laerm;61415;55.702;37.460;2023-04-25T00:21:51;66.44;60.27;71.81;;
73206;Laerm;61415;55.702;37.460;2023-04-25T00:22:22;60.34;56.09;66.10;;
73206;Laerm;61415;55.702;37.460;2023-04-25T00:22:53;63.60;56.10;70.43;;
73206;Laerm;61415;55.702;37.460;2023-04-25T00:23:24;61.74;56.33;67.74;;
73206;Laerm;61415;55.702;37.460;2023-04-25T00:23:55;61.52;54.72;66.98;;
73206;Laerm;61415;55.702;37.460;2023-04-25T00:24:26;65.08;58.00;70.20;;
73206;Laerm;61415;55.702;37.460;2023-04-25T00:24:56;61.84;57.94;66.42;;
73206;Laerm;61415;55.702;37.460;2023-04-25T00:25:30;58.60;54.83;63.56;;
73206;Laerm;61415;55.702;37.460;2023-04-25T00:26:01;61.83;56.36;66.45;;
73206;Laerm;61415;55.702;37.460;2023-04-25T00:26:33;60.28;54.27;65.43;;
73206;Laerm;61415;55.702;37.460;2023-04-25T00:27:04;57.47;53.83;62.11;;
73206;Laerm;61415;55.702;37.460;2023-04-25T00:27:35;60.32;56.95;64.07;;
73206;Laerm;61415;55.702;37.460;2023-04-25T00:28:05;60.24;55.34;64.67;;
73206;Laerm;61415;55.702;37.460;2023-04-25T00:28:36;56.91;53.04;61.82;;
73206;Laerm;61415;55.702;37.460;2023-04-25T00:29:07;59.31;54.44;62.99;;
73206;Laerm;61415;55.702;37.460;2023-04-25T00:29:38;64.31;58.01;69.62;;
73206;Laerm;61415;55.702;37.460;2023-04-25T00:30:09;61.00;56.33;64.54;;
73206;Laerm;61415;55.702;37.460;2023-04-25T00:30:40;62.15;57.92;65.68;;
73206;Laerm;61415;55.702;37.460;2023-04-25T00:31:11;65.53;55.66;71.80;;
73206;Laerm;61415;55.702;37.460;2023-04-25T00:31:42;60.31;54.95;66.54;;
73206;Laerm;61415;55.702;37.460;2023-04-25T00:32:13;65.17;60.10;70.40;;
73206;Laerm;61415;55.702;37.460;2023-04-25T00:32:44;62.25;58.27;67.84;;
73206;Laerm;61415;55.702;37.460;2023-04-25T00:33:14;62.91;55.24;70.06;;
73206;Laerm;61415;55.702;37.460;2023-04-25T00:33:45;60.55;55.39;65.78;;
73206;Laerm;61415;55.702;37.460;2023-04-25T00:34:16;59.80;54.02;64.36;;
73206;Laerm;61415;55.702;37.460;2023-04-25T00:34:47;57.42;53.18;64.28;;
73206;Laerm;61415;55.702;37.460;2023-04-25T00:35:17;61.71;56.23;68.94;;
73206;Laerm;61415;55.702;37.460;2023-04-25T00:35:48;60.71;56.04;66.60;;
73206;Laerm;61415;55.702;37.460;2023-04-25T00:36:19;62.34;56.74;66.88;;
73206;Laerm;61415;55.702;37.460;2023-04-25T00:36:50;63.24;57.36;67.73;;
73206;Laerm;61415;55.702;37.460;2023-04-25T00:37:21;60.21;56.05;64.45;;
73206;Laerm;61415;55.702;37.460;2023-04-25T00:37:51;62.12;57.10;65.86;;
73206;Laerm;61415;55.702;37.460;2023-04-25T00:38:22;65.17;57.60;70.75;;
73206;Laerm;61415;55.702;37.460;2023-04-25T00:38:53;57.14;53.74;62.13;;
73206;Laerm;61415;55.702;37.460;2023-04-25T00:39:25;58.73;53.77;63.28;;
73206;Laerm;61415;55.702;37.460;2023-04-25T00:39:57;58.71;55.22;62.58;;
73206;Laerm;61415;55.702;37.460;2023-04-25T00:40:28;64.04;56.39;71.41;;
73206;Laerm;61415;55.702;37.460;2023-04-25T00:40:59;62.90;57.64;68.17;;
73206;Laerm;61415;55.702;37.460;2023-04-25T00:41:30;65.33;57.86;70.64;;
73206;Laerm;61415;55.702;37.460;2023-04-25T00:42:01;63.91;58.64;66.86;;
73206;Laerm;61415;55.702;37.460;2023-04-25T00:42:33;61.55;56.85;66.58;;
73206;Laerm;61415;55.702;37.460;2023-04-25T00:43:04;62.26;55.67;69.62;;
73206;Laerm;61415;55.702;37.460;2023-04-25T00:43:36;65.63;58.83;72.73;;
73206;Laerm;61415;55.702;37.460;2023-04-25T00:44:08;61.79;56.98;66.53;;
73206;Laerm;61415;55.702;37.460;2023-04-25T00:44:40;59.59;53.89;64.44;;
73206;Laerm;61415;55.702;37.460;2023-04-25T00:45:12;59.22;53.42;63.88;;
73206;Laerm;61415;55.702;37.460;2023-04-25T00:45:44;58.68;51.81;63.09;;
73206;Laerm;61415;55.702;37.460;2023-04-25T00:46:17;56.13;52.39;63.15;;
73206;Laerm;61415;55.702;37.460;2023-04-25T00:46:48;57.71;52.78;64.60;;
73206;Laerm;61415;55.702;37.460;2023-04-25T00:47:20;59.54;55.05;65.27;;
73206;Laerm;61415;55.702;37.460;2023-04-25T00:47:51;58.63;53.06;62.75;;
73206;Laerm;61415;55.702;37.460;2023-04-25T00:48:22;54.58;51.56;57.32;;
73206;Laerm;61415;55.702;37.460;2023-04-25T00:48:53;54.75;51.22;59.85;;
73206;Laerm;61415;55.702;37.460;2023-04-25T00:49:24;60.79;55.27;66.25;;
73206;Laerm;61415;55.702;37.460;2023-04-25T00:49:54;58.78;54.29;62.21;;
73206;Laerm;61415;55.702;37.460;2023-04-25T00:50:25;61.95;57.02;65.78;;
73206;Laerm;61415;55.702;37.460;2023-04-25T00:50:57;57.57;53.30;65.31;;
73206;Laerm;61415;55.702;37.460;2023-04-25T00:51:28;57.67;53.07;63.23;;
73206;Laerm;61415;55.702;37.460;2023-04-25T00:51:59;58.60;52.41;67.81;;
73206;Laerm;61415;55.702;37.460;2023-04-25T00:52:30;60.88;57.03;65.49;;
73206;Laerm;61415;55.702;37.460;2023-04-25T00:53:01;60.95;56.57;68.27;;
73206;Laerm;61415;55.702;37.460;2023-04-25T00:53:32;60.38;56.40;64.82;;
73206;Laerm;61415;55.702;37.460;2023-04-25T00:54:03;62.52;57.31;70.49;;
73206;Laerm;61415;55.702;37.460;2023-04-25T00:54:34;58.57;53.56;65.62;;
73206;Laerm;61415;55.702;37.460;2023-04-25T00:55:05;60.35;54.46;66.32;;
73206;Laerm;61415;55.702;37.460;2023-04-25T00:55:35;61.64;55.46;72.47;;
73206;Laerm;61415;55.702;37.460;2023-04-25T00:56:06;63.99;60.05;70.74;;
73206;Laerm;61415;55.702;37.460;2023-04-25T00:56:37;63.31;57.76;69.24;;
73206;Laerm;61415;55.702;37.460;2023-04-25T00:57:08;65.21;60.60;69.69;;
73206;Laerm;61415;55.702;37.460;2023-04-25T00:57:39;59.40;56.25;63.79;;
73206;Laerm;61415;55.702;37.460;2023-04-25T00:58:10;60.14;53.51;65.01;;
73206;Laerm;61415;55.702;37.460;2023-04-25T00:58:41;60.39;53.15;64.47;;
73206;Laerm;61415;55.702;37.460;2023-04-25T00:59:14;56.94;53.09;61.45;;
73206;Laerm;61415;55.702;37.460;2023-04-25T00:59:45;57.40;53.60;61.87;;
73206;Laerm;61415;55.702;37.460;2023-04-25T01:00:19;62.71;58.52;69.50;;
73206;Laerm;61415;55.702;37.460;2023-04-25T01:00:51;65.34;55.96;83.90;;
73206;Laerm;61415;55.702;37.460;2023-04-25T01:01:22;63.63;57.20;68.38;;
73206;Laerm;61415;55.702;37.460;2023-04-25T01:01:53;58.48;54.65;64.12;;
73206;Laerm;61415;55.702;37.460;2023-04-25T01:02:24;63.36;56.31;68.27;;
73206;Laerm;61415;55.702;37.460;2023-04-25T01:02:56;61.74;58.06;64.97;;
73206;Laerm;61415;55.702;37.460;2023-04-25T01:03:27;60.69;55.35;64.89;;
73206;Laerm;61415;55.702;37.460;2023-04-25T01:03:59;58.02;54.62;63.35;;
73206;Laerm;61415;55.702;37.460;2023-04-25T01:04:31;63.13;55.31;68.14;;
73206;Laerm;61415;55.702;37.460;2023-04-25T01:05:02;57.19;54.33;62.52;;
73206;Laerm;61415;55.702;37.460;2023-04-25T01:05:33;61.51;55.35;71.73;;
73206;Laerm;61415;55.702;37.460;2023-04-25T01:06:04;62.84;57.79;72.18;;
73206;Laerm;61415;55.702;37.460;2023-04-25T01:06:35;58.78;54.61;62.14;;
73206;Laerm;61415;55.702;37.460;2023-04-25T01:07:05;60.29;56.63;63.43;;
73206;Laerm;61415;55.702;37.460;2023-04-25T01:07:36;64.35;57.67;71.03;;
73206;Laerm;61415;55.702;37.460;2023-04-25T01:08:07;62.25;58.22;67.61;;
73206;Laerm;61415;55.702;37.460;2023-04-25T01:08:38;61.69;57.65;65.55;;
73206;Laerm;61415;55.702;37.460;2023-04-25T01:09:09;59.47;54.47;66.60;;
73206;Laerm;61415;55.702;37.460;2023-04-25T01:09:40;61.68;57.14;65.97;;
73206;Laerm;61415;55.702;37.460;2023-04-25T01:10:11;62.05;58.66;65.10;;
73206;Laerm;61415;55.702;37.460;2023-04-25T01:10:42;62.31;56.77;67.11;;
73206;Laerm;61415;55.702;37.460;2023-04-25T01:11:13;62.04;55.22;66.62;;
73206;Laerm;61415;55.702;37.460;2023-04-25T01:11:44;59.00;52.91;64.38;;
73206;Laerm;61415;55.702;37.460;2023-04-25T01:12:15;58.19;53.32;64.03;;
73206;Laerm;61415;55.702;37.460;2023-04-25T01:12:46;60.69;55.00;65.27;;
73206;Laerm;61415;55.702;37.460;2023-04-25T01:13:17;57.66;54.53;62.26;;
73206;Laerm;61415;55.702;37.460;2023-04-25T01:13:47;60.23;54.89;64.17;;
73206;Laerm;61415;55.702;37.460;2023-04-25T01:14:18;59.67;53.91;64.01;;
73206;Laerm;61415;55.702;37.460;2023-04-25T01:14:49;60.87;56.69;66.16;;
73206;Laerm;61415;55.702;37.460;2023-04-25T01:15:20;63.51;59.43;68.18;;
73206;Laerm;61415;55.702;37.460;2023-04-25T01:15:51;64.07;59.62;69.47;;
73206;Laerm;61415;55.702;37.460;2023-04-25T01:16:21;63.29;56.76;67.09;;
73206;Laerm;61415;55.702;37.460;2023-04-25T01:16:54;60.42;57.26;63.77;;
73206;Laerm;61415;55.702;37.460;2023-04-25T01:17:25;64.44;60.54;69.10;;
73206;Laerm;61415;55.702;37.460;2023-04-25T01:17:56;64.45;60.97;68.59;;
73206;Laerm;61415;55.702;37.460;2023-04-25T01:18:27;62.59;58.88;66.12;;
73206;Laerm;61415;55.702;37.460;2023-04-25T01:18:58;65.99;58.88;71.32;;
73206;Laerm;61415;55.702;37.460;2023-04-25T01:19:29;62.23;58.44;66.65;;
73206;Laerm;61415;55.702;37.460;2023-04-25T01:20:03;60.58;55.59;69.69;;
73206;Laerm;61415;55.702;37.460;2023-04-25T01:20:34;64.46;58.19;69.76;;
73206;Laerm;61415;55.702;37.460;2023-04-25T01:21:08;59.78;56.22;64.90;;
73206;Laerm;61415;55.702;37.460;2023-04-25T01:21:40;65.59;58.31;71.66;;
73206;Laerm;61415;55.702;37.460;2023-04-25T01:22:11;61.91;56.58;68.21;;
73206;Laerm;61415;55.702;37.460;2023-04-25T01:22:42;60.91;56.88;63.60;;
73206;Laerm;61415;55.702;37.460;2023-04-25T01:23:13;61.65;57.06;65.30;;
73206;Laerm;61415;55.702;37.460;2023-04-25T01:23:44;62.07;56.92;66.27;;
73206;Laerm;61415;55.702;37.460;2023-04-25T01:24:16;62.64;54.67;70.66;;
73206;Laerm;61415;55.702;37.460;2023-04-25T01:24:47;63.21;58.11;69.48;;
73206;Laerm;61415;55.702;37.460;2023-04-25T01:25:18;60.75;54.57;65.69;;
73206;Laerm;61415;55.702;37.460;2023-04-25T01:25:49;61.58;55.71;65.33;;
73206;Laerm;61415;55.702;37.460;2023-04-25T01:26:20;63.65;57.15;69.48;;
73206;Laerm;61415;55.702;37.460;2023-04-25T01:26:51;61.93;57.34;68.33;;
73206;Laerm;61415;55.702;37.460;2023-04-25T01:27:23;61.61;55.94;65.06;;
73206;Laerm;61415;55.702;37.460;2023-04-25T01:27:54;59.71;54.96;68.21;;
73206;Laerm;61415;55.702;37.460;2023-04-25T01:28:25;60.77;57.24;65.03;;
73206;Laerm;61415;55.702;37.460;2023-04-25T01:28:56;66.27;59.94;72.87;;
73206;Laerm;61415;55.702;37.460;2023-04-25T01:29:28;65.62;61.17;69.64;;
73206;Laerm;61415;55.702;37.460;2023-04-25T01:29:59;62.21;55.64;70.77;;
73206;Laerm;61415;55.702;37.460;2023-04-25T01:30:30;64.07;55.30;73.94;;
73206;Laerm;61415;55.702;37.460;2023-04-25T01:31:01;62.94;58.52;66.01;;
73206;Laerm;61415;55.702;37.460;2023-04-25T01:31:33;62.91;58.27;71.55;;
73206;Laerm;61415;55.702;37.460;2023-04-25T01:32:05;64.07;56.60;71.90;;
73206;Laerm;61415;55.702;37.460;2023-04-25T01:32:36;59.89;56.18;66.46;;
73206;Laerm;61415;55.702;37.460;2023-04-25T01:33:10;62.39;58.43;68.31;;
73206;Laerm;61415;55.702;37.460;2023-04-25T01:33:41;62.75;58.99;68.19;;
73206;Laerm;61415;55.702;37.460;2023-04-25T01:34:12;61.13;57.96;65.15;;
73206;Laerm;61415;55.702;37.460;2023-04-25T01:34:43;63.00;59.06;67.25;;
73206;Laerm;61415;55.702;37.460;2023-04-25T01:35:14;60.22;54.64;65.22;;
73206;Laerm;61415;55.702;37.460;2023-04-25T01:35:45;59.71;54.36;66.94;;
73206;Laerm;61415;55.702;37.460;2023-04-25T01:36:17;61.67;57.61;66.12;;
73206;Laerm;61415;55.702;37.460;2023-04-25T01:36:48;64.55;59.08;70.16;;
73206;Laerm;61415;55.702;37.460;2023-04-25T01:37:19;63.30;58.43;67.81;;
73206;Laerm;61415;55.702;37.460;2023-04-25T01:37:50;63.92;58.19;68.80;;
73206;Laerm;61415;55.702;37.460;2023-04-25T01:38:21;57.88;54.38;61.55;;
73206;Laerm;61415;55.702;37.460;2023-04-25T01:38:52;60.70;56.15;64.82;;
73206;Laerm;61415;55.702;37.460;2023-04-25T01:39:23;60.25;54.94;66.22;;
73206;Laerm;61415;55.702;37.460;2023-04-25T01:39:54;56.42;53.69;60.28;;
73206;Laerm;61415;55.702;37.460;2023-04-25T01:40:25;61.55;57.08;65.42;;
73206;Laerm;61415;55.702;37.460;2023-04-25T01:40:56;62.16;58.58;65.46;;
73206;Laerm;61415;55.702;37.460;2023-04-25T01:41:28;61.53;57.00;66.19;;
73206;Laerm;61415;55.702;37.460;2023-04-25T01:41:59;63.30;59.28;66.95;;
73206;Laerm;61415;55.702;37.460;2023-04-25T01:42:30;58.88;55.17;63.26;;
73206;Laerm;61415;55.702;37.460;2023-04-25T01:43:01;57.15;53.32;63.72;;
73206;Laerm;61415;55.702;37.460;2023-04-25T01:43:31;60.90;56.22;65.02;;
73206;Laerm;61415;55.702;37.460;2023-04-25T01:44:02;61.11;56.60;64.80;;
73206;Laerm;61415;55.702;37.460;2023-04-25T01:44:33;62.40;57.37;67.82;;
73206;Laerm;61415;55.702;37.460;2023-04-25T01:45:04;60.15;55.86;64.62;;
73206;Laerm;61415;55.702;37.460;2023-04-25T01:45:35;59.61;53.87;63.66;;
73206;Laerm;61415;55.702;37.460;2023-04-25T01:46:06;57.51;53.96;61.71;;
73206;Laerm;61415;55.702;37.460;2023-04-25T01:46:37;61.00;54.06;68.33;;
73206;Laerm;61415;55.702;37.460;2023-04-25T01:47:08;59.80;55.41;63.70;;
73206;Laerm;61415;55.702;37.460;2023-04-25T01:47:39;61.18;57.48;64.21;;
73206;Laerm;61415;55.702;37.460;2023-04-25T01:48:11;61.93;56.04;65.98;;
73206;Laerm;61415;55.702;37.460;2023-04-25T01:48:42;63.01;57.02;67.38;;
73206;Laerm;61415;55.702;37.460;2023-04-25T01:49:13;61.49;57.41;65.61;;
73206;Laerm;61415;55.702;37.460;2023-04-25T01:49:44;60.14;57.07;64.55;;
73206;Laerm;61415;55.702;37.460;2023-04-25T01:50:15;62.08;57.34;66.13;;
73206;Laerm;61415;55.702;37.460;2023-04-25T01:50:46;59.86;55.33;63.84;;
73206;Laerm;61415;55.702;37.460;2023-04-25T01:51:17;60.60;55.00;64.48;;
73206;Laerm;61415;55.702;37.460;2023-04-25T01:51:48;58.78;55.15;65.88;;
73206;Laerm;61415;55.702;37.460;2023-04-25T01:52:19;64.53;57.12;72.54;;
73206;Laerm;61415;55.702;37.460;2023-04-25T01:52:49;63.45;57.70;67.33;;
73206;Laerm;61415;55.702;37.460;2023-04-25T01:53:20;61.94;58.07;64.94;;
73206;Laerm;61415;55.702;37.460;2023-04-25T01:53:51;60.41;53.96;63.98;;
73206;Laerm;61415;55.702;37.460;2023-04-25T01:54:22;60.12;54.24;64.38;;
73206;Laerm;61415;55.702;37.460;2023-04-25T01:54:53;60.16;57.08;65.51;;
73206;Laerm;61415;55.702;37.460;2023-04-25T01:55:26;60.54;57.25;64.00;;
73206;Laerm;61415;55.702;37.460;2023-04-25T01:55:56;61.28;56.88;64.69;;
73206;Laerm;61415;55.702;37.460;2023-04-25T01:56:36;58.82;54.73;62.65;;
73206;Laerm;61415;55.702;37.460;2023-04-25T01:57:06;64.90;60.60;72.12;;
73206;Laerm;61415;55.702;37.460;2023-04-25T01:57:37;63.77;59.08;67.84;;
73206;Laerm;61415;55.702;37.460;2023-04-25T01:58:08;62.21;57.70;67.50;;
73206;Laerm;61415;55.702;37.460;2023-04-25T01:58:40;63.93;60.24;69.33;;
73206;Laerm;61415;55.702;37.460;2023-04-25T01:59:10;66.39;60.33;73.51;;
73206;Laerm;61415;55.702;37.460;2023-04-25T01:59:41;65.46;60.91;69.15;;
73206;Laerm;61415;55.702;37.460;2023-04-25T02:00:12;63.51;59.88;68.08;;
73206;Laerm;61415;55.702;37.460;2023-04-25T02:00:43;66.66;63.91;70.20;;
73206;Laerm;61415;55.702;37.460;2023-04-25T02:01:15;66.01;63.29;69.30;;
73206;Laerm;61415;55.702;37.460;2023-04-25T02:01:45;64.57;57.34;68.55;;
73206;Laerm;61415;55.702;37.460;2023-04-25T02:02:16;62.06;56.92;68.47;;
73206;Laerm;61415;55.702;37.460;2023-04-25T02:02:47;63.57;57.93;68.29;;
73206;Laerm;61415;55.702;37.460;2023-04-25T02:03:18;59.58;56.09;63.48;;
73206;Laerm;61415;55.702;37.460;2023-04-25T02:03:49;56.81;53.93;62.82;;
73206;Laerm;61415;55.702;37.460;2023-04-25T02:04:20;62.43;54.63;68.19;;
73206;Laerm;61415;55.702;37.460;2023-04-25T02:04:51;64.08;59.04;67.72;;
73206;Laerm;61415;55.702;37.460;2023-04-25T02:05:22;63.12;59.31;65.56;;
73206;Laerm;61415;55.702;37.460;2023-04-25T02:05:53;63.50;58.77;67.38;;
73206;Laerm;61415;55.702;37.460;2023-04-25T02:06:23;61.49;58.27;65.82;;
73206;Laerm;61415;55.702;37.460;2023-04-25T02:06:54;65.48;58.91;73.05;;
73206;Laerm;61415;55.702;37.460;2023-04-25T02:07:25;63.25;58.12;68.91;;
73206;Laerm;61415;55.702;37.460;2023-04-25T02:07:56;67.43;63.65;71.41;;
73206;Laerm;61415;55.702;37.460;2023-04-25T02:08:27;65.75;59.89;71.51;;
73206;Laerm;61415;55.702;37.460;2023-04-25T02:08:58;61.69;56.56;65.62;;
73206;Laerm;61415;55.702;37.460;2023-04-25T02:09:29;62.55;58.31;66.40;;
73206;Laerm;61415;55.702;37.460;2023-04-25T02:10:00;64.85;61.27;68.27;;
73206;Laerm;61415;55.702;37.460;2023-04-25T02:10:30;63.18;57.79;68.26;;
73206;Laerm;61415;55.702;37.460;2023-04-25T02:11:01;62.59;58.58;66.86;;
73206;Laerm;61415;55.702;37.460;2023-04-25T02:11:33;66.19;59.93;71.50;;
73206;Laerm;61415;55.702;37.460;2023-04-25T02:12:04;62.84;58.79;68.01;;
73206;Laerm;61415;55.702;37.460;2023-04-25T02:12:35;59.49;54.40;63.77;;
73206;Laerm;61415;55.702;37.460;2023-04-25T02:13:06;66.03;57.22;71.21;;
73206;Laerm;61415;55.702;37.460;2023-04-25T02:13:37;63.44;59.60;68.28;;
73206;Laerm;61415;55.702;37.460;2023-04-25T02:14:07;62.31;58.92;65.56;;
73206;Laerm;61415;55.702;37.460;2023-04-25T02:14:38;61.61;58.82;64.42;;
73206;Laerm;61415;55.702;37.460;2023-04-25T02:15:09;62.91;56.93;66.92;;
73206;Laerm;61415;55.702;37.460;2023-04-25T02:15:40;63.35;55.87;70.00;;
73206;Laerm;61415;55.702;37.460;2023-04-25T02:16:11;64.39;59.76;69.28;;
73206;Laerm;61415;55.702;37.460;2023-04-25T02:16:42;61.42;57.86;65.32;;
73206;Laerm;61415;55.702;37.460;2023-04-25T02:17:14;62.35;57.99;65.94;;
73206;Laerm;61415;55.702;37.460;2023-04-25T02:17:45;66.21;61.08;69.96;;
73206;Laerm;61415;55.702;37.460;2023-04-25T02:18:16;63.21;59.53;68.19;;
73206;Laerm;61415;55.702;37.460;2023-04-25T02:18:47;62.19;58.42;65.18;;
73206;Laerm;61415;55.702;37.460;2023-04-25T02:19:18;65.64;57.99;70.08;;
73206;Laerm;61415;55.702;37.460;2023-04-25T02:19:48;67.91;60.29;75.17;;
73206;Laerm;61415;55.702;37.460;2023-04-25T02:20:21;63.11;59.93;66.25;;
73206;Laerm;61415;55.702;37.460;2023-04-25T02:20:52;64.52;58.96;67.88;;
73206;Laerm;61415;55.702;37.460;2023-04-25T02:21:22;63.66;60.18;69.64;;
73206;Laerm;61415;55.702;37.460;2023-04-25T02:21:53;64.34;60.42;67.52;;
73206;Laerm;61415;55.702;37.460;2023-04-25T02:22:24;61.24;56.45;66.73;;
73206;Laerm;61415;55.702;37.460;2023-04-25T02:22:55;63.55;58.76;68.68;;
73206;Laerm;61415;55.702;37.460;2023-04-25T02:23:26;61.45;58.41;64.45;;
73206;Laerm;61415;55.702;37.460;2023-04-25T02:23:57;65.19;59.71;68.86;;
73206;Laerm;61415;55.702;37.460;2023-04-25T02:24:28;66.77;61.88;70.39;;
73206;Laerm;61415;55.702;37.460;2023-04-25T02:24:59;65.49;61.40;69.29;;
73206;Laerm;61415;55.702;37.460;2023-04-25T02:25:29;61.42;56.85;66.33;;
73206;Laerm;61415;55.702;37.460;2023-04-25T02:26:00;62.88;59.53;66.75;;
73206;Laerm;61415;55.702;37.460;2023-04-25T02:26:31;61.76;58.68;67.01;;
73206;Laerm;61415;55.702;37.460;2023-04-25T02:27:02;66.01;62.09;69.07;;
73206;Laerm;61415;55.702;37.460;2023-04-25T02:27:33;63.01;57.42;68.16;;
73206;Laerm;61415;55.702;37.460;2023-04-25T02:28:04;62.37;56.25;66.82;;
73206;Laerm;61415;55.702;37.460;2023-04-25T02:28:34;65.65;60.73;71.47;;
73206;Laerm;61415;55.702;37.460;2023-04-25T02:29:05;67.48;64.83;70.78;;
73206;Laerm;61415;55.702;37.460;2023-04-25T02:29:36;65.99;61.67;70.07;;
73206;Laerm;61415;55.702;37.460;2023-04-25T02:30:07;66.70;61.88;71.22;;
73206;Laerm;61415;55.702;37.460;2023-04-25T02:30:38;65.79;60.00;71.83;;
73206;Laerm;61415;55.702;37.460;2023-04-25T02:31:08;63.63;59.56;68.29;;
73206;Laerm;61415;55.702;37.460;2023-04-25T02:31:39;64.88;60.45;68.39;;
73206;Laerm;61415;55.702;37.460;2023-04-25T02:32:10;66.37;60.35;72.86;;
73206;Laerm;61415;55.702;37.460;2023-04-25T02:32:41;62.43;58.92;66.78;;
73206;Laerm;61415;55.702;37.460;2023-04-25T02:33:12;62.30;59.43;68.09;;
73206;Laerm;61415;55.702;37.460;2023-04-25T02:33:43;67.18;59.25;70.45;;
73206;Laerm;61415;55.702;37.460;2023-04-25T02:34:13;65.47;61.68;69.62;;
73206;Laerm;61415;55.702;37.460;2023-04-25T02:34:44;64.44;60.30;68.22;;
73206;Laerm;61415;55.702;37.460;2023-04-25T02:35:15;63.04;59.08;66.59;;
73206;Laerm;61415;55.702;37.460;2023-04-25T02:35:46;66.50;61.70;70.86;;
73206;Laerm;61415;55.702;37.460;2023-04-25T02:36:17;65.24;62.38;68.59;;
73206;Laerm;61415;55.702;37.460;2023-04-25T02:36:48;65.68;61.52;69.48;;
73206;Laerm;61415;55.702;37.460;2023-04-25T02:37:21;65.94;60.34;69.54;;
73206;Laerm;61415;55.702;37.460;2023-04-25T02:37:52;63.99;58.81;68.07;;
73206;Laerm;61415;55.702;37.460;2023-04-25T02:38:22;65.35;60.79;68.88;;
73206;Laerm;61415;55.702;37.460;2023-04-25T02:38:53;65.22;62.25;68.23;;
73206;Laerm;61415;55.702;37.460;2023-04-25T02:39:24;64.88;60.34;67.43;;
73206;Laerm;61415;55.702;37.460;2023-04-25T02:39:55;64.93;60.44;69.35;;
73206;Laerm;61415;55.702;37.460;2023-04-25T02:40:26;64.67;60.17;68.37;;
73206;Laerm;61415;55.702;37.460;2023-04-25T02:40:57;63.89;60.84;67.77;;
73206;Laerm;61415;55.702;37.460;2023-04-25T02:41:28;64.18;60.76;67.78;;
73206;Laerm;61415;55.702;37.460;2023-04-25T02:41:58;66.54;60.36;71.22;;
73206;Laerm;61415;55.702;37.460;2023-04-25T02:42:30;64.43;60.22;67.51;;
73206;Laerm;61415;55.702;37.460;2023-04-25T02:43:00;64.26;59.38;68.60;;
73206;Laerm;61415;55.702;37.460;2023-04-25T02:43:31;66.81;63.58;69.87;;
73206;Laerm;61415;55.702;37.460;2023-04-25T02:44:02;64.96;61.09;70.48;;
73206;Laerm;61415;55.702;37.460;2023-04-25T02:44:33;64.44;59.60;68.06;;
73206;Laerm;61415;55.702;37.460;2023-04-25T02:45:03;63.83;59.94;68.31;;
73206;Laerm;61415;55.702;37.460;2023-04-25T02:45:34;63.99;58.68;67.46;;
73206;Laerm;61415;55.702;37.460;2023-04-25T02:46:05;65.26;60.32;69.35;;
73206;Laerm;61415;55.702;37.460;2023-04-25T02:46:36;66.24;62.56;69.44;;
73206;Laerm;61415;55.702;37.460;2023-04-25T02:47:07;67.75;63.13;70.62;;
73206;Laerm;61415;55.702;37.460;2023-04-25T02:47:38;66.95;61.68;74.32;;
73206;Laerm;61415;55.702;37.460;2023-04-25T02:48:08;69.03;65.16;74.65;;
73206;Laerm;61415;55.702;37.460;2023-04-25T02:48:39;66.73;60.45;74.25;;
73206;Laerm;61415;55.702;37.460;2023-04-25T02:49:10;66.78;63.24;70.51;;
73206;Laerm;61415;55.702;37.460;2023-04-25T02:49:41;71.55;64.03;80.55;;
73206;Laerm;61415;55.702;37.460;2023-04-25T02:50:11;67.54;59.70;75.75;;
73206;Laerm;61415;55.702;37.460;2023-04-25T02:50:42;66.59;63.13;70.64;;
73206;Laerm;61415;55.702;37.460;2023-04-25T02:51:13;64.70;60.19;68.67;;